sensor_id;sensor_type;location;lat;lon;timestamp;temperature;humidity
21121;DHT22;12519;43.318;21.898;2022-11-24T00:01:55;10.8;99.0
21121;DHT22;12519;43.318;21.898;2022-11-24T00:06:35;10.8;99.0
21121;DHT22;12519;43.318;21.898;2022-11-24T00:11:18;10.6;99.0
21121;DHT22;12519;43.318;21.898;2022-11-24T00:16:12;10.6;99.0
21121;DHT22;12519;43.318;21.898;2022-11-24T00:20:55;10.4;99.0
21121;DHT22;12519;43.318;21.898;2022-11-24T00:25:32;10.4;99.0
21121;DHT22;12519;43.318;21.898;2022-11-24T00:30:11;10.1;100.0
21121;DHT22;12519;43.318;21.898;2022-11-24T00:34:49;10.1;100.0
21121;DHT22;12519;43.318;21.898;2022-11-24T00:39:26;10.1;100.0
21121;DHT22;12519;43.318;21.898;2022-11-24T00:44:04;10.1;100.0
21121;DHT22;12519;43.318;21.898;2022-11-24T00:48:43;10.1;100.0
21121;DHT22;12519;43.318;21.898;2022-11-24T00:53:20;10.1;99.0
21121;DHT22;12519;43.318;21.898;2022-11-24T00:57:56;10.1;99.0
21121;DHT22;12519;43.318;21.898;2022-11-24T01:02:33;10.0;99.0
21121;DHT22;12519;43.318;21.898;2022-11-24T01:07:10;10.0;99.0
21121;DHT22;12519;43.318;21.898;2022-11-24T01:11:46;9.8;99.0
21121;DHT22;12519;43.318;21.898;2022-11-24T01:16:30;9.8;99.0
21121;DHT22;12519;43.318;21.898;2022-11-24T01:21:10;9.6;99.0
21121;DHT22;12519;43.318;21.898;2022-11-24T01:25:46;9.6;99.0
21121;DHT22;12519;43.318;21.898;2022-11-24T01:30:23;9.4;100.0
21121;DHT22;12519;43.318;21.898;2022-11-24T01:34:59;9.4;100.0
21121;DHT22;12519;43.318;21.898;2022-11-24T01:39:37;9.4;100.0
21121;DHT22;12519;43.318;21.898;2022-11-24T01:44:32;9.4;100.0
21121;DHT22;12519;43.318;21.898;2022-11-24T01:49:19;9.4;100.0
21121;DHT22;12519;43.318;21.898;2022-11-24T01:54:24;9.4;100.0
21121;DHT22;12519;43.318;21.898;2022-11-24T01:59:15;9.4;100.0
21121;DHT22;12519;43.318;21.898;2022-11-24T02:04:06;9.4;100.0
21121;DHT22;12519;43.318;21.898;2022-11-24T02:08:58;9.4;100.0
21121;DHT22;12519;43.318;21.898;2022-11-24T02:13:42;9.4;100.0
21121;DHT22;12519;43.318;21.898;2022-11-24T02:18:22;9.4;100.0
21121;DHT22;12519;43.318;21.898;2022-11-24T02:23:18;9.4;99.0
21121;DHT22;12519;43.318;21.898;2022-11-24T02:28:09;9.4;99.0
21121;DHT22;12519;43.318;21.898;2022-11-24T02:32:51;9.3;99.0
21121;DHT22;12519;43.318;21.898;2022-11-24T02:37:29;9.3;99.0
21121;DHT22;12519;43.318;21.898;2022-11-24T02:42:12;9.2;100.0
21121;DHT22;12519;43.318;21.898;2022-11-24T02:47:00;9.2;100.0
21121;DHT22;12519;43.318;21.898;2022-11-24T02:51:40;9.0;100.0
21121;DHT22;12519;43.318;21.898;2022-11-24T02:56:17;9.0;100.0
21121;DHT22;12519;43.318;21.898;2022-11-24T03:00:54;8.8;100.0
21121;DHT22;12519;43.318;21.898;2022-11-24T03:05:31;8.8;100.0
21121;DHT22;12519;43.318;21.898;2022-11-24T03:10:09;8.7;100.0
21121;DHT22;12519;43.318;21.898;2022-11-24T03:14:46;8.7;100.0
21121;DHT22;12519;43.318;21.898;2022-11-24T03:19:23;8.7;100.0
21121;DHT22;12519;43.318;21.898;2022-11-24T03:24:00;8.8;100.0
21121;DHT22;12519;43.318;21.898;2022-11-24T03:28:37;8.8;100.0
21121;DHT22;12519;43.318;21.898;2022-11-24T03:33:15;9.0;100.0
21121;DHT22;12519;43.318;21.898;2022-11-24T03:37:51;9.0;100.0
21121;DHT22;12519;43.318;21.898;2022-11-24T03:42:28;9.0;100.0
21121;DHT22;12519;43.318;21.898;2022-11-24T03:47:04;9.0;100.0
21121;DHT22;12519;43.318;21.898;2022-11-24T03:51:41;8.9;100.0
21121;DHT22;12519;43.318;21.898;2022-11-24T03:56:17;8.9;100.0
21121;DHT22;12519;43.318;21.898;2022-11-24T04:00:55;9.0;100.0
21121;DHT22;12519;43.318;21.898;2022-11-24T04:05:32;9.0;100.0
21121;DHT22;12519;43.318;21.898;2022-11-24T04:10:10;9.0;100.0
21121;DHT22;12519;43.318;21.898;2022-11-24T04:14:46;9.0;100.0
21121;DHT22;12519;43.318;21.898;2022-11-24T04:19:23;9.0;100.0
21121;DHT22;12519;43.318;21.898;2022-11-24T04:23:59;9.0;99.0
21121;DHT22;12519;43.318;21.898;2022-11-24T04:28:36;9.0;99.0
21121;DHT22;12519;43.318;21.898;2022-11-24T04:33:12;9.0;99.0
21121;DHT22;12519;43.318;21.898;2022-11-24T04:37:49;9.0;99.0
21121;DHT22;12519;43.318;21.898;2022-11-24T04:42:26;8.9;99.0
21121;DHT22;12519;43.318;21.898;2022-11-24T04:47:03;8.9;99.0
21121;DHT22;12519;43.318;21.898;2022-11-24T04:51:41;8.8;99.0
21121;DHT22;12519;43.318;21.898;2022-11-24T04:56:17;8.8;99.0
21121;DHT22;12519;43.318;21.898;2022-11-24T05:00:54;8.6;99.0
21121;DHT22;12519;43.318;21.898;2022-11-24T05:05:31;8.6;99.0
21121;DHT22;12519;43.318;21.898;2022-11-24T05:10:08;8.4;99.0
21121;DHT22;12519;43.318;21.898;2022-11-24T05:14:45;8.4;99.0
21121;DHT22;12519;43.318;21.898;2022-11-24T05:19:22;8.4;99.0
21121;DHT22;12519;43.318;21.898;2022-11-24T05:23:58;9.4;99.0
21121;DHT22;12519;43.318;21.898;2022-11-24T05:28:36;9.4;99.0
21121;DHT22;12519;43.318;21.898;2022-11-24T05:33:16;10.4;99.0
21121;DHT22;12519;43.318;21.898;2022-11-24T05:37:53;10.4;99.0
21121;DHT22;12519;43.318;21.898;2022-11-24T05:42:30;9.7;100.0
21121;DHT22;12519;43.318;21.898;2022-11-24T05:47:06;9.7;100.0
21121;DHT22;12519;43.318;21.898;2022-11-24T05:51:43;9.0;100.0
21121;DHT22;12519;43.318;21.898;2022-11-24T05:56:20;9.0;100.0
21121;DHT22;12519;43.318;21.898;2022-11-24T06:00:56;9.0;100.0
21121;DHT22;12519;43.318;21.898;2022-11-24T06:05:33;9.0;100.0
21121;DHT22;12519;43.318;21.898;2022-11-24T06:10:09;8.9;100.0
21121;DHT22;12519;43.318;21.898;2022-11-24T06:14:45;8.9;100.0
21121;DHT22;12519;43.318;21.898;2022-11-24T06:19:22;8.9;100.0
21121;DHT22;12519;43.318;21.898;2022-11-24T06:23:58;9.0;100.0
21121;DHT22;12519;43.318;21.898;2022-11-24T06:28:35;9.0;100.0
21121;DHT22;12519;43.318;21.898;2022-11-24T06:33:11;9.1;100.0
21121;DHT22;12519;43.318;21.898;2022-11-24T06:37:47;9.1;100.0
21121;DHT22;12519;43.318;21.898;2022-11-24T06:42:23;9.0;100.0
21121;DHT22;12519;43.318;21.898;2022-11-24T06:47:00;9.0;100.0
21121;DHT22;12519;43.318;21.898;2022-11-24T06:51:36;8.8;100.0
21121;DHT22;12519;43.318;21.898;2022-11-24T06:56:19;8.8;100.0
21121;DHT22;12519;43.318;21.898;2022-11-24T07:00:57;9.0;100.0
21121;DHT22;12519;43.318;21.898;2022-11-24T07:05:34;9.0;100.0
21121;DHT22;12519;43.318;21.898;2022-11-24T07:10:10;9.0;100.0
21121;DHT22;12519;43.318;21.898;2022-11-24T07:14:47;9.1;100.0
21121;DHT22;12519;43.318;21.898;2022-11-24T07:19:24;9.1;100.0
21121;DHT22;12519;43.318;21.898;2022-11-24T07:24:01;9.2;100.0
21121;DHT22;12519;43.318;21.898;2022-11-24T07:28:37;9.2;100.0
21121;DHT22;12519;43.318;21.898;2022-11-24T07:33:13;9.3;100.0
21121;DHT22;12519;43.318;21.898;2022-11-24T07:37:54;9.3;100.0
21121;DHT22;12519;43.318;21.898;2022-11-24T07:42:30;9.3;100.0
21121;DHT22;12519;43.318;21.898;2022-11-24T07:47:07;9.3;100.0
21121;DHT22;12519;43.318;21.898;2022-11-24T07:51:43;9.3;100.0
21121;DHT22;12519;43.318;21.898;2022-11-24T07:56:20;9.3;100.0
21121;DHT22;12519;43.318;21.898;2022-11-24T08:00:59;9.4;99.0
21121;DHT22;12519;43.318;21.898;2022-11-24T08:05:53;9.4;99.0
21121;DHT22;12519;43.318;21.898;2022-11-24T08:10:33;9.6;99.0
21121;DHT22;12519;43.318;21.898;2022-11-24T08:15:10;9.6;99.0
21121;DHT22;12519;43.318;21.898;2022-11-24T08:19:47;9.6;99.0
21121;DHT22;12519;43.318;21.898;2022-11-24T08:24:23;9.7;99.0
21121;DHT22;12519;43.318;21.898;2022-11-24T08:29:02;9.7;99.0
21121;DHT22;12519;43.318;21.898;2022-11-24T08:33:41;9.8;99.0
21121;DHT22;12519;43.318;21.898;2022-11-24T08:38:18;9.8;99.0
21121;DHT22;12519;43.318;21.898;2022-11-24T08:42:57;10.0;98.0
21121;DHT22;12519;43.318;21.898;2022-11-24T08:47:33;10.0;98.0
21121;DHT22;12519;43.318;21.898;2022-11-24T08:52:09;10.1;98.0
21121;DHT22;12519;43.318;21.898;2022-11-24T08:56:48;10.1;98.0
21121;DHT22;12519;43.318;21.898;2022-11-24T09:01:27;10.2;98.0
21121;DHT22;12519;43.318;21.898;2022-11-24T09:06:06;10.2;98.0
21121;DHT22;12519;43.318;21.898;2022-11-24T09:10:43;10.3;98.0
21121;DHT22;12519;43.318;21.898;2022-11-24T09:15:19;10.3;98.0
21121;DHT22;12519;43.318;21.898;2022-11-24T09:19:56;10.3;98.0
21121;DHT22;12519;43.318;21.898;2022-11-24T09:24:32;10.6;97.0
21121;DHT22;12519;43.318;21.898;2022-11-24T09:29:10;10.6;97.0
21121;DHT22;12519;43.318;21.898;2022-11-24T09:33:47;11.0;96.0
21121;DHT22;12519;43.318;21.898;2022-11-24T09:38:24;11.0;96.0
21121;DHT22;12519;43.318;21.898;2022-11-24T09:43:20;11.7;96.0
21121;DHT22;12519;43.318;21.898;2022-11-24T09:48:30;11.7;96.0
21121;DHT22;12519;43.318;21.898;2022-11-24T09:53:37;12.4;96.0
21121;DHT22;12519;43.318;21.898;2022-11-24T09:58:44;12.4;96.0
21121;DHT22;12519;43.318;21.898;2022-11-24T10:03:37;12.2;94.0
21121;DHT22;12519;43.318;21.898;2022-11-24T10:08:52;12.2;94.0
21121;DHT22;12519;43.318;21.898;2022-11-24T10:15:00;12.1;91.0
21121;DHT22;12519;43.318;21.898;2022-11-24T10:20:07;12.1;91.0
21121;DHT22;12519;43.318;21.898;2022-11-24T10:25:19;11.7;92.0
21121;DHT22;12519;43.318;21.898;2022-11-24T10:30:01;11.7;92.0
21121;DHT22;12519;43.318;21.898;2022-11-24T10:34:50;11.3;92.0
21121;DHT22;12519;43.318;21.898;2022-11-24T10:40:02;11.3;92.0
21121;DHT22;12519;43.318;21.898;2022-11-24T10:45:17;11.6;92.0
21121;DHT22;12519;43.318;21.898;2022-11-24T10:50:20;11.6;92.0
21121;DHT22;12519;43.318;21.898;2022-11-24T10:55:06;11.8;91.0
21121;DHT22;12519;43.318;21.898;2022-11-24T10:59:44;11.8;91.0
21121;DHT22;12519;43.318;21.898;2022-11-24T11:04:30;12.5;92.0
21121;DHT22;12519;43.318;21.898;2022-11-24T11:09:20;12.5;92.0
21121;DHT22;12519;43.318;21.898;2022-11-24T11:14:03;13.2;93.0
21121;DHT22;12519;43.318;21.898;2022-11-24T11:18:49;13.2;93.0
21121;DHT22;12519;43.318;21.898;2022-11-24T11:23:35;12.9;89.0
21121;DHT22;12519;43.318;21.898;2022-11-24T11:28:28;12.9;89.0
21121;DHT22;12519;43.318;21.898;2022-11-24T11:33:24;12.6;84.0
21121;DHT22;12519;43.318;21.898;2022-11-24T11:38:06;12.6;84.0
21121;DHT22;12519;43.318;21.898;2022-11-24T11:43:00;12.0;85.0
21121;DHT22;12519;43.318;21.898;2022-11-24T11:47:50;12.0;85.0
21121;DHT22;12519;43.318;21.898;2022-11-24T11:53:04;11.4;86.0
21121;DHT22;12519;43.318;21.898;2022-11-24T11:58:55;11.4;86.0
21121;DHT22;12519;43.318;21.898;2022-11-24T12:04:23;11.4;86.0
21121;DHT22;12519;43.318;21.898;2022-11-24T12:09:58;11.4;86.0
21121;DHT22;12519;43.318;21.898;2022-11-24T12:15:17;11.4;86.0
21121;DHT22;12519;43.318;21.898;2022-11-24T12:20:50;11.4;86.0
21121;DHT22;12519;43.318;21.898;2022-11-24T12:26:13;11.4;86.0
21121;DHT22;12519;43.318;21.898;2022-11-24T12:31:40;11.3;86.0
21121;DHT22;12519;43.318;21.898;2022-11-24T12:37:24;11.3;86.0
21121;DHT22;12519;43.318;21.898;2022-11-24T12:42:49;11.0;87.0
21121;DHT22;12519;43.318;21.898;2022-11-24T12:48:14;11.0;87.0
21121;DHT22;12519;43.318;21.898;2022-11-24T12:53:14;10.8;88.0
21121;DHT22;12519;43.318;21.898;2022-11-24T12:58:12;10.8;88.0
21121;DHT22;12519;43.318;21.898;2022-11-24T13:03:34;11.2;90.0
21121;DHT22;12519;43.318;21.898;2022-11-24T13:08:21;11.2;90.0
21121;DHT22;12519;43.318;21.898;2022-11-24T13:13:03;11.7;92.0
21121;DHT22;12519;43.318;21.898;2022-11-24T13:17:43;11.7;92.0
21121;DHT22;12519;43.318;21.898;2022-11-24T13:22:25;12.0;89.0
21121;DHT22;12519;43.318;21.898;2022-11-24T13:27:42;12.0;89.0
21121;DHT22;12519;43.318;21.898;2022-11-24T13:33:25;12.3;86.0
21121;DHT22;12519;43.318;21.898;2022-11-24T13:38:51;12.3;86.0
21121;DHT22;12519;43.318;21.898;2022-11-24T13:43:29;11.6;88.0
21121;DHT22;12519;43.318;21.898;2022-11-24T13:48:58;11.6;88.0
21121;DHT22;12519;43.318;21.898;2022-11-24T13:53:44;10.9;89.0
21121;DHT22;12519;43.318;21.898;2022-11-24T13:58:36;10.9;89.0
21121;DHT22;12519;43.318;21.898;2022-11-24T14:03:30;10.8;90.0
21121;DHT22;12519;43.318;21.898;2022-11-24T14:08:29;10.8;90.0
21121;DHT22;12519;43.318;21.898;2022-11-24T14:13:27;10.6;91.0
21121;DHT22;12519;43.318;21.898;2022-11-24T14:18:20;10.6;91.0
21121;DHT22;12519;43.318;21.898;2022-11-24T14:22:57;10.6;91.0
21121;DHT22;12519;43.318;21.898;2022-11-24T14:27:38;10.6;91.0
21121;DHT22;12519;43.318;21.898;2022-11-24T14:32:16;10.6;92.0
21121;DHT22;12519;43.318;21.898;2022-11-24T14:36:55;10.6;92.0
21121;DHT22;12519;43.318;21.898;2022-11-24T14:41:35;10.7;91.0
21121;DHT22;12519;43.318;21.898;2022-11-24T14:46:19;10.7;91.0
21121;DHT22;12519;43.318;21.898;2022-11-24T14:51:14;10.7;91.0
21121;DHT22;12519;43.318;21.898;2022-11-24T14:56:33;10.8;91.0
21121;DHT22;12519;43.318;21.898;2022-11-24T15:01:32;10.9;90.0
21121;DHT22;12519;43.318;21.898;2022-11-24T15:06:20;10.9;90.0
21121;DHT22;12519;43.318;21.898;2022-11-24T15:11:02;10.9;90.0
21121;DHT22;12519;43.318;21.898;2022-11-24T15:15:55;10.9;90.0
21121;DHT22;12519;43.318;21.898;2022-11-24T15:20:45;10.9;90.0
21121;DHT22;12519;43.318;21.898;2022-11-24T15:25:32;11.0;90.0
21121;DHT22;12519;43.318;21.898;2022-11-24T15:30:12;11.0;90.0
21121;DHT22;12519;43.318;21.898;2022-11-24T15:34:48;11.1;89.0
21121;DHT22;12519;43.318;21.898;2022-11-24T15:39:25;11.1;89.0
21121;DHT22;12519;43.318;21.898;2022-11-24T15:44:01;11.0;90.0
21121;DHT22;12519;43.318;21.898;2022-11-24T15:48:38;11.0;90.0
21121;DHT22;12519;43.318;21.898;2022-11-24T15:53:23;11.0;90.0
21121;DHT22;12519;43.318;21.898;2022-11-24T15:58:12;11.0;90.0
21121;DHT22;12519;43.318;21.898;2022-11-24T16:02:50;10.8;90.0
21121;DHT22;12519;43.318;21.898;2022-11-24T16:07:27;10.8;90.0
21121;DHT22;12519;43.318;21.898;2022-11-24T16:12:05;10.7;91.0
21121;DHT22;12519;43.318;21.898;2022-11-24T16:16:43;10.7;91.0
21121;DHT22;12519;43.318;21.898;2022-11-24T16:21:20;10.7;91.0
21121;DHT22;12519;43.318;21.898;2022-11-24T16:25:57;10.7;91.0
21121;DHT22;12519;43.318;21.898;2022-11-24T16:30:34;10.7;91.0
21121;DHT22;12519;43.318;21.898;2022-11-24T16:35:11;10.7;91.0
21121;DHT22;12519;43.318;21.898;2022-11-24T16:39:47;10.7;91.0
21121;DHT22;12519;43.318;21.898;2022-11-24T16:44:25;10.6;91.0
21121;DHT22;12519;43.318;21.898;2022-11-24T16:49:01;10.6;91.0
21121;DHT22;12519;43.318;21.898;2022-11-24T16:53:39;10.4;92.0
21121;DHT22;12519;43.318;21.898;2022-11-24T16:58:16;10.4;92.0
21121;DHT22;12519;43.318;21.898;2022-11-24T17:02:52;10.4;91.0
21121;DHT22;12519;43.318;21.898;2022-11-24T17:07:28;10.4;91.0
21121;DHT22;12519;43.318;21.898;2022-11-24T17:12:05;10.4;91.0
21121;DHT22;12519;43.318;21.898;2022-11-24T17:16:41;10.4;91.0
21121;DHT22;12519;43.318;21.898;2022-11-24T17:21:23;10.4;91.0
21121;DHT22;12519;43.318;21.898;2022-11-24T17:26:08;10.2;92.0
21121;DHT22;12519;43.318;21.898;2022-11-24T17:30:48;10.2;92.0
21121;DHT22;12519;43.318;21.898;2022-11-24T17:35:25;10.0;93.0
21121;DHT22;12519;43.318;21.898;2022-11-24T17:40:04;10.0;93.0
21121;DHT22;12519;43.318;21.898;2022-11-24T17:44:44;10.0;93.0
21121;DHT22;12519;43.318;21.898;2022-11-24T17:49:20;10.0;93.0
21121;DHT22;12519;43.318;21.898;2022-11-24T17:53:57;9.9;94.0
21121;DHT22;12519;43.318;21.898;2022-11-24T17:58:35;9.9;94.0
21121;DHT22;12519;43.318;21.898;2022-11-24T18:03:11;9.9;94.0
21121;DHT22;12519;43.318;21.898;2022-11-24T18:07:48;9.9;94.0
21121;DHT22;12519;43.318;21.898;2022-11-24T18:12:24;9.9;94.0
21121;DHT22;12519;43.318;21.898;2022-11-24T18:17:00;9.9;94.0
21121;DHT22;12519;43.318;21.898;2022-11-24T18:21:38;9.9;94.0
21121;DHT22;12519;43.318;21.898;2022-11-24T18:26:18;9.9;94.0
21121;DHT22;12519;43.318;21.898;2022-11-24T18:31:01;9.9;94.0
21121;DHT22;12519;43.318;21.898;2022-11-24T18:35:41;9.9;94.0
21121;DHT22;12519;43.318;21.898;2022-11-24T18:40:19;9.9;94.0
21121;DHT22;12519;43.318;21.898;2022-11-24T18:44:56;9.9;94.0
21121;DHT22;12519;43.318;21.898;2022-11-24T18:49:33;9.9;94.0
21121;DHT22;12519;43.318;21.898;2022-11-24T18:54:10;9.8;94.0
21121;DHT22;12519;43.318;21.898;2022-11-24T18:58:46;9.8;94.0
21121;DHT22;12519;43.318;21.898;2022-11-24T19:03:27;9.8;95.0
21121;DHT22;12519;43.318;21.898;2022-11-24T19:08:04;9.8;95.0
21121;DHT22;12519;43.318;21.898;2022-11-24T19:12:42;9.8;96.0
21121;DHT22;12519;43.318;21.898;2022-11-24T19:17:18;9.8;96.0
21121;DHT22;12519;43.318;21.898;2022-11-24T19:21:55;10.1;96.0
21121;DHT22;12519;43.318;21.898;2022-11-24T19:26:32;10.1;96.0
21121;DHT22;12519;43.318;21.898;2022-11-24T19:31:15;10.1;96.0
21121;DHT22;12519;43.318;21.898;2022-11-24T19:36:06;10.4;96.0
21121;DHT22;12519;43.318;21.898;2022-11-24T19:40:47;10.4;96.0
21121;DHT22;12519;43.318;21.898;2022-11-24T19:45:23;10.3;96.0
21121;DHT22;12519;43.318;21.898;2022-11-24T19:50:00;10.3;96.0
21121;DHT22;12519;43.318;21.898;2022-11-24T19:54:36;10.2;95.0
21121;DHT22;12519;43.318;21.898;2022-11-24T19:59:13;10.2;95.0
21121;DHT22;12519;43.318;21.898;2022-11-24T20:03:57;10.2;95.0
21121;DHT22;12519;43.318;21.898;2022-11-24T20:08:38;10.2;95.0
21121;DHT22;12519;43.318;21.898;2022-11-24T20:13:16;10.2;95.0
21121;DHT22;12519;43.318;21.898;2022-11-24T20:17:53;10.2;95.0
21121;DHT22;12519;43.318;21.898;2022-11-24T20:22:29;10.1;95.0
21121;DHT22;12519;43.318;21.898;2022-11-24T20:27:05;10.1;95.0
21121;DHT22;12519;43.318;21.898;2022-11-24T20:31:48;10.1;95.0
21121;DHT22;12519;43.318;21.898;2022-11-24T20:36:32;10.0;96.0
21121;DHT22;12519;43.318;21.898;2022-11-24T20:41:19;10.0;96.0
21121;DHT22;12519;43.318;21.898;2022-11-24T20:46:03;10.0;96.0
21121;DHT22;12519;43.318;21.898;2022-11-24T20:50:41;10.0;96.0
21121;DHT22;12519;43.318;21.898;2022-11-24T20:55:18;10.0;96.0
21121;DHT22;12519;43.318;21.898;2022-11-24T20:59:54;10.0;96.0
21121;DHT22;12519;43.318;21.898;2022-11-24T21:04:31;10.0;96.0
21121;DHT22;12519;43.318;21.898;2022-11-24T21:09:09;10.0;96.0
21121;DHT22;12519;43.318;21.898;2022-11-24T21:13:48;10.0;96.0
21121;DHT22;12519;43.318;21.898;2022-11-24T21:18:25;10.0;96.0
21121;DHT22;12519;43.318;21.898;2022-11-24T21:23:01;9.8;96.0
21121;DHT22;12519;43.318;21.898;2022-11-24T21:27:39;9.8;96.0
21121;DHT22;12519;43.318;21.898;2022-11-24T21:32:15;9.5;96.0
21121;DHT22;12519;43.318;21.898;2022-11-24T21:36:52;9.5;96.0
21121;DHT22;12519;43.318;21.898;2022-11-24T21:41:32;9.5;96.0
21121;DHT22;12519;43.318;21.898;2022-11-24T21:46:11;9.6;97.0
21121;DHT22;12519;43.318;21.898;2022-11-24T21:50:49;9.6;97.0
21121;DHT22;12519;43.318;21.898;2022-11-24T21:55:26;9.8;98.0
21121;DHT22;12519;43.318;21.898;2022-11-24T22:00:06;9.8;98.0
21121;DHT22;12519;43.318;21.898;2022-11-24T22:04:44;10.1;98.0
21121;DHT22;12519;43.318;21.898;2022-11-24T22:09:20;10.1;98.0
21121;DHT22;12519;43.318;21.898;2022-11-24T22:13:57;10.4;98.0
21121;DHT22;12519;43.318;21.898;2022-11-24T22:18:37;10.4;98.0
21121;DHT22;12519;43.318;21.898;2022-11-24T22:23:17;10.2;98.0
21121;DHT22;12519;43.318;21.898;2022-11-24T22:27:53;10.2;98.0
21121;DHT22;12519;43.318;21.898;2022-11-24T22:32:29;9.9;98.0
21121;DHT22;12519;43.318;21.898;2022-11-24T22:37:06;9.9;98.0
21121;DHT22;12519;43.318;21.898;2022-11-24T22:41:43;9.9;98.0
21121;DHT22;12519;43.318;21.898;2022-11-24T22:46:25;9.9;98.0
21121;DHT22;12519;43.318;21.898;2022-11-24T22:51:12;9.9;98.0
21121;DHT22;12519;43.318;21.898;2022-11-24T22:55:59;9.8;98.0
21121;DHT22;12519;43.318;21.898;2022-11-24T23:00:39;9.8;98.0
21121;DHT22;12519;43.318;21.898;2022-11-24T23:05:16;9.8;99.0
21121;DHT22;12519;43.318;21.898;2022-11-24T23:09:52;9.8;99.0
21121;DHT22;12519;43.318;21.898;2022-11-24T23:14:29;9.7;99.0
21121;DHT22;12519;43.318;21.898;2022-11-24T23:19:07;9.7;99.0
21121;DHT22;12519;43.318;21.898;2022-11-24T23:23:48;9.8;98.0
21121;DHT22;12519;43.318;21.898;2022-11-24T23:28:27;9.8;98.0
21121;DHT22;12519;43.318;21.898;2022-11-24T23:33:03;10.0;98.0
21121;DHT22;12519;43.318;21.898;2022-11-24T23:37:39;10.0;98.0
21121;DHT22;12519;43.318;21.898;2022-11-24T23:42:15;10.0;98.0
21121;DHT22;12519;43.318;21.898;2022-11-24T23:46:52;9.9;98.0
21121;DHT22;12519;43.318;21.898;2022-11-24T23:51:32;9.9;98.0
21121;DHT22;12519;43.318;21.898;2022-11-24T23:56:15;9.8;98.0
